sensor_id;sensor_type;location;lat;lon;timestamp;P1;durP1;ratioP1;P2;durP2;ratioP2
10894;SDS011;5500;49.886;8.074;2024-02-26T00:01:34;1.80;;;1.47;;
10894;SDS011;5500;49.886;8.074;2024-02-26T00:04:02;2.30;;;1.60;;
10894;SDS011;5500;49.886;8.074;2024-02-26T00:06:30;1.50;;;1.30;;
10894;SDS011;5500;49.886;8.074;2024-02-26T00:08:58;2.50;;;1.57;;
10894;SDS011;5500;49.886;8.074;2024-02-26T00:11:27;2.47;;;1.40;;
10894;SDS011;5500;49.886;8.074;2024-02-26T00:13:55;1.70;;;1.50;;
10894;SDS011;5500;49.886;8.074;2024-02-26T00:16:22;3.33;;;1.70;;
10894;SDS011;5500;49.886;8.074;2024-02-26T00:18:51;1.83;;;1.40;;
10894;SDS011;5500;49.886;8.074;2024-02-26T00:21:19;2.07;;;1.60;;
10894;SDS011;5500;49.886;8.074;2024-02-26T00:23:47;5.60;;;1.70;;
10894;SDS011;5500;49.886;8.074;2024-02-26T00:26:15;3.47;;;1.70;;
10894;SDS011;5500;49.886;8.074;2024-02-26T00:28:43;1.50;;;1.40;;
10894;SDS011;5500;49.886;8.074;2024-02-26T00:31:11;1.97;;;1.77;;
10894;SDS011;5500;49.886;8.074;2024-02-26T00:33:38;1.53;;;1.40;;
10894;SDS011;5500;49.886;8.074;2024-02-26T00:36:08;2.83;;;1.33;;
10894;SDS011;5500;49.886;8.074;2024-02-26T00:38:36;2.40;;;1.67;;
10894;SDS011;5500;49.886;8.074;2024-02-26T00:41:04;1.77;;;1.57;;
10894;SDS011;5500;49.886;8.074;2024-02-26T00:43:31;2.60;;;1.50;;
10894;SDS011;5500;49.886;8.074;2024-02-26T00:45:59;4.97;;;1.77;;
10894;SDS011;5500;49.886;8.074;2024-02-26T00:48:27;3.20;;;1.50;;
10894;SDS011;5500;49.886;8.074;2024-02-26T00:50:55;4.53;;;1.80;;
10894;SDS011;5500;49.886;8.074;2024-02-26T00:53:24;2.60;;;1.63;;
10894;SDS011;5500;49.886;8.074;2024-02-26T00:55:52;1.40;;;1.30;;
10894;SDS011;5500;49.886;8.074;2024-02-26T00:58:19;1.80;;;1.40;;
10894;SDS011;5500;49.886;8.074;2024-02-26T01:00:47;1.57;;;1.47;;
10894;SDS011;5500;49.886;8.074;2024-02-26T01:03:15;1.80;;;1.63;;
10894;SDS011;5500;49.886;8.074;2024-02-26T01:05:43;1.57;;;1.47;;
10894;SDS011;5500;49.886;8.074;2024-02-26T01:08:10;2.50;;;1.67;;
10894;SDS011;5500;49.886;8.074;2024-02-26T01:10:40;2.27;;;1.60;;
10894;SDS011;5500;49.886;8.074;2024-02-26T01:13:07;2.70;;;1.67;;
10894;SDS011;5500;49.886;8.074;2024-02-26T01:15:35;1.40;;;1.30;;
10894;SDS011;5500;49.886;8.074;2024-02-26T01:18:03;1.40;;;1.30;;
10894;SDS011;5500;49.886;8.074;2024-02-26T01:20:30;1.83;;;1.50;;
10894;SDS011;5500;49.886;8.074;2024-02-26T01:22:58;3.33;;;1.50;;
10894;SDS011;5500;49.886;8.074;2024-02-26T01:25:26;3.00;;;1.63;;
10894;SDS011;5500;49.886;8.074;2024-02-26T01:27:55;1.67;;;1.40;;
10894;SDS011;5500;49.886;8.074;2024-02-26T01:30:22;2.23;;;1.20;;
10894;SDS011;5500;49.886;8.074;2024-02-26T01:32:50;1.70;;;1.57;;
10894;SDS011;5500;49.886;8.074;2024-02-26T01:35:18;1.93;;;1.43;;
10894;SDS011;5500;49.886;8.074;2024-02-26T01:37:46;3.13;;;1.80;;
10894;SDS011;5500;49.886;8.074;2024-02-26T01:40:14;2.20;;;1.60;;
10894;SDS011;5500;49.886;8.074;2024-02-26T01:42:44;1.60;;;1.50;;
10894;SDS011;5500;49.886;8.074;2024-02-26T01:45:14;1.93;;;1.43;;
10894;SDS011;5500;49.886;8.074;2024-02-26T01:47:49;2.23;;;1.40;;
10894;SDS011;5500;49.886;8.074;2024-02-26T01:50:18;3.03;;;1.73;;
10894;SDS011;5500;49.886;8.074;2024-02-26T01:52:46;2.27;;;1.33;;
10894;SDS011;5500;49.886;8.074;2024-02-26T01:55:14;2.37;;;1.63;;
10894;SDS011;5500;49.886;8.074;2024-02-26T01:57:42;1.40;;;1.30;;
10894;SDS011;5500;49.886;8.074;2024-02-26T02:00:11;1.30;;;1.20;;
10894;SDS011;5500;49.886;8.074;2024-02-26T02:02:41;1.60;;;1.50;;
10894;SDS011;5500;49.886;8.074;2024-02-26T02:05:11;3.57;;;1.63;;
10894;SDS011;5500;49.886;8.074;2024-02-26T02:07:39;1.90;;;1.60;;
10894;SDS011;5500;49.886;8.074;2024-02-26T02:10:08;1.77;;;1.57;;
10894;SDS011;5500;49.886;8.074;2024-02-26T02:12:36;2.37;;;1.80;;
10894;SDS011;5500;49.886;8.074;2024-02-26T02:15:06;1.50;;;1.40;;
10894;SDS011;5500;49.886;8.074;2024-02-26T02:17:36;2.07;;;1.20;;
10894;SDS011;5500;49.886;8.074;2024-02-26T02:20:06;2.07;;;1.67;;
10894;SDS011;5500;49.886;8.074;2024-02-26T02:22:37;1.60;;;1.47;;
10894;SDS011;5500;49.886;8.074;2024-02-26T02:25:05;2.37;;;1.20;;
10894;SDS011;5500;49.886;8.074;2024-02-26T02:27:33;2.27;;;1.50;;
10894;SDS011;5500;49.886;8.074;2024-02-26T02:30:01;2.30;;;1.43;;
10894;SDS011;5500;49.886;8.074;2024-02-26T02:32:29;1.80;;;1.37;;
10894;SDS011;5500;49.886;8.074;2024-02-26T02:34:57;2.07;;;1.57;;
10894;SDS011;5500;49.886;8.074;2024-02-26T02:37:25;2.83;;;1.60;;
10894;SDS011;5500;49.886;8.074;2024-02-26T02:39:54;2.90;;;1.83;;
10894;SDS011;5500;49.886;8.074;2024-02-26T02:42:23;1.70;;;1.40;;
10894;SDS011;5500;49.886;8.074;2024-02-26T02:44:52;4.60;;;1.97;;
10894;SDS011;5500;49.886;8.074;2024-02-26T02:47:19;2.83;;;1.73;;
10894;SDS011;5500;49.886;8.074;2024-02-26T02:49:47;2.20;;;1.50;;
10894;SDS011;5500;49.886;8.074;2024-02-26T02:52:15;2.00;;;1.70;;
10894;SDS011;5500;49.886;8.074;2024-02-26T02:54:43;1.60;;;1.50;;
10894;SDS011;5500;49.886;8.074;2024-02-26T02:57:12;1.70;;;1.60;;
10894;SDS011;5500;49.886;8.074;2024-02-26T02:59:40;1.77;;;1.50;;
10894;SDS011;5500;49.886;8.074;2024-02-26T03:02:07;1.40;;;1.30;;
10894;SDS011;5500;49.886;8.074;2024-02-26T03:04:35;2.00;;;1.53;;
10894;SDS011;5500;49.886;8.074;2024-02-26T03:07:03;1.83;;;1.50;;
10894;SDS011;5500;49.886;8.074;2024-02-26T03:09:31;2.40;;;1.83;;
10894;SDS011;5500;49.886;8.074;2024-02-26T03:11:58;6.50;;;1.63;;
10894;SDS011;5500;49.886;8.074;2024-02-26T03:14:28;2.80;;;1.70;;
10894;SDS011;5500;49.886;8.074;2024-02-26T03:16:56;1.80;;;1.70;;
10894;SDS011;5500;49.886;8.074;2024-02-26T03:19:23;1.50;;;1.40;;
10894;SDS011;5500;49.886;8.074;2024-02-26T03:21:52;1.77;;;1.67;;
10894;SDS011;5500;49.886;8.074;2024-02-26T03:24:20;1.80;;;1.47;;
10894;SDS011;5500;49.886;8.074;2024-02-26T03:26:48;2.10;;;1.90;;
10894;SDS011;5500;49.886;8.074;2024-02-26T03:29:17;2.07;;;1.83;;
10894;SDS011;5500;49.886;8.074;2024-02-26T03:31:46;3.27;;;1.63;;
10894;SDS011;5500;49.886;8.074;2024-02-26T03:34:13;2.23;;;2.00;;
10894;SDS011;5500;49.886;8.074;2024-02-26T03:36:42;1.70;;;1.60;;
10894;SDS011;5500;49.886;8.074;2024-02-26T03:39:09;2.17;;;1.90;;
10894;SDS011;5500;49.886;8.074;2024-02-26T03:41:37;1.67;;;1.47;;
10894;SDS011;5500;49.886;8.074;2024-02-26T03:44:05;1.73;;;1.63;;
10894;SDS011;5500;49.886;8.074;2024-02-26T03:46:33;1.83;;;1.50;;
10894;SDS011;5500;49.886;8.074;2024-02-26T03:49:02;2.00;;;1.70;;
10894;SDS011;5500;49.886;8.074;2024-02-26T03:51:30;1.80;;;1.60;;
10894;SDS011;5500;49.886;8.074;2024-02-26T03:53:59;2.40;;;1.67;;
10894;SDS011;5500;49.886;8.074;2024-02-26T03:56:26;2.83;;;1.57;;
10894;SDS011;5500;49.886;8.074;2024-02-26T03:58:54;3.07;;;2.20;;
10894;SDS011;5500;49.886;8.074;2024-02-26T04:01:22;2.23;;;1.50;;
10894;SDS011;5500;49.886;8.074;2024-02-26T04:03:50;1.90;;;1.70;;
10894;SDS011;5500;49.886;8.074;2024-02-26T04:06:20;2.10;;;1.63;;
10894;SDS011;5500;49.886;8.074;2024-02-26T04:08:48;2.00;;;1.80;;
10894;SDS011;5500;49.886;8.074;2024-02-26T04:11:16;1.60;;;1.40;;
10894;SDS011;5500;49.886;8.074;2024-02-26T04:13:46;1.87;;;1.67;;
10894;SDS011;5500;49.886;8.074;2024-02-26T04:16:15;3.70;;;1.80;;
10894;SDS011;5500;49.886;8.074;2024-02-26T04:18:43;1.40;;;1.30;;
10894;SDS011;5500;49.886;8.074;2024-02-26T04:21:11;2.20;;;1.50;;
10894;SDS011;5500;49.886;8.074;2024-02-26T04:23:40;1.80;;;1.70;;
10894;SDS011;5500;49.886;8.074;2024-02-26T04:26:08;2.10;;;1.50;;
10894;SDS011;5500;49.886;8.074;2024-02-26T04:28:36;2.53;;;1.50;;
10894;SDS011;5500;49.886;8.074;2024-02-26T04:31:03;1.80;;;1.50;;
10894;SDS011;5500;49.886;8.074;2024-02-26T04:33:33;2.97;;;1.70;;
10894;SDS011;5500;49.886;8.074;2024-02-26T04:36:01;2.77;;;1.70;;
10894;SDS011;5500;49.886;8.074;2024-02-26T04:38:29;1.70;;;1.60;;
10894;SDS011;5500;49.886;8.074;2024-02-26T04:40:58;2.97;;;2.00;;
10894;SDS011;5500;49.886;8.074;2024-02-26T04:43:26;3.17;;;1.97;;
10894;SDS011;5500;49.886;8.074;2024-02-26T04:45:54;1.80;;;1.70;;
10894;SDS011;5500;49.886;8.074;2024-02-26T04:48:23;2.70;;;1.80;;
10894;SDS011;5500;49.886;8.074;2024-02-26T04:50:51;2.50;;;2.30;;
10894;SDS011;5500;49.886;8.074;2024-02-26T04:53:19;1.93;;;1.83;;
10894;SDS011;5500;49.886;8.074;2024-02-26T04:55:46;2.47;;;2.17;;
10894;SDS011;5500;49.886;8.074;2024-02-26T04:58:15;2.30;;;2.00;;
10894;SDS011;5500;49.886;8.074;2024-02-26T05:00:43;2.03;;;1.80;;
10894;SDS011;5500;49.886;8.074;2024-02-26T05:03:11;2.20;;;2.00;;
10894;SDS011;5500;49.886;8.074;2024-02-26T05:05:42;2.13;;;1.80;;
10894;SDS011;5500;49.886;8.074;2024-02-26T05:08:10;4.30;;;2.10;;
10894;SDS011;5500;49.886;8.074;2024-02-26T05:10:38;2.90;;;2.13;;
10894;SDS011;5500;49.886;8.074;2024-02-26T05:13:07;2.90;;;2.30;;
10894;SDS011;5500;49.886;8.074;2024-02-26T05:15:36;2.57;;;2.07;;
10894;SDS011;5500;49.886;8.074;2024-02-26T05:18:04;3.60;;;2.17;;
10894;SDS011;5500;49.886;8.074;2024-02-26T05:20:34;4.40;;;2.27;;
10894;SDS011;5500;49.886;8.074;2024-02-26T05:23:04;3.40;;;2.50;;
10894;SDS011;5500;49.886;8.074;2024-02-26T05:25:31;3.67;;;2.23;;
10894;SDS011;5500;49.886;8.074;2024-02-26T05:28:02;2.90;;;2.60;;
10894;SDS011;5500;49.886;8.074;2024-02-26T05:30:30;6.60;;;2.63;;
10894;SDS011;5500;49.886;8.074;2024-02-26T05:33:00;2.90;;;2.53;;
10894;SDS011;5500;49.886;8.074;2024-02-26T05:35:27;2.40;;;2.20;;
10894;SDS011;5500;49.886;8.074;2024-02-26T05:37:55;2.83;;;2.57;;
10894;SDS011;5500;49.886;8.074;2024-02-26T05:40:23;3.20;;;2.70;;
10894;SDS011;5500;49.886;8.074;2024-02-26T05:42:50;4.27;;;3.40;;
10894;SDS011;5500;49.886;8.074;2024-02-26T05:45:18;6.40;;;2.87;;
10894;SDS011;5500;49.886;8.074;2024-02-26T05:47:46;4.77;;;2.60;;
10894;SDS011;5500;49.886;8.074;2024-02-26T05:50:15;2.87;;;2.53;;
10894;SDS011;5500;49.886;8.074;2024-02-26T05:52:43;4.43;;;2.80;;
10894;SDS011;5500;49.886;8.074;2024-02-26T05:55:11;2.97;;;2.77;;
10894;SDS011;5500;49.886;8.074;2024-02-26T05:57:40;3.13;;;2.57;;
10894;SDS011;5500;49.886;8.074;2024-02-26T06:00:08;3.43;;;2.67;;
10894;SDS011;5500;49.886;8.074;2024-02-26T06:02:41;3.53;;;3.10;;
10894;SDS011;5500;49.886;8.074;2024-02-26T06:05:09;4.30;;;3.00;;
10894;SDS011;5500;49.886;8.074;2024-02-26T06:07:38;3.57;;;2.63;;
10894;SDS011;5500;49.886;8.074;2024-02-26T06:10:06;4.60;;;2.87;;
10894;SDS011;5500;49.886;8.074;2024-02-26T06:12:35;4.17;;;2.60;;
10894;SDS011;5500;49.886;8.074;2024-02-26T06:15:03;3.43;;;2.87;;
10894;SDS011;5500;49.886;8.074;2024-02-26T06:17:31;5.87;;;3.17;;
10894;SDS011;5500;49.886;8.074;2024-02-26T06:20:00;3.30;;;3.00;;
10894;SDS011;5500;49.886;8.074;2024-02-26T06:22:29;3.20;;;2.90;;
10894;SDS011;5500;49.886;8.074;2024-02-26T06:24:58;3.23;;;2.93;;
10894;SDS011;5500;49.886;8.074;2024-02-26T06:27:26;5.43;;;3.03;;
10894;SDS011;5500;49.886;8.074;2024-02-26T06:29:54;4.37;;;3.07;;
10894;SDS011;5500;49.886;8.074;2024-02-26T06:32:23;3.20;;;2.90;;
10894;SDS011;5500;49.886;8.074;2024-02-26T06:34:53;4.00;;;3.17;;
10894;SDS011;5500;49.886;8.074;2024-02-26T06:37:21;4.90;;;3.40;;
10894;SDS011;5500;49.886;8.074;2024-02-26T06:39:49;3.70;;;3.30;;
10894;SDS011;5500;49.886;8.074;2024-02-26T06:42:19;4.27;;;3.67;;
10894;SDS011;5500;49.886;8.074;2024-02-26T06:44:47;4.90;;;3.73;;
10894;SDS011;5500;49.886;8.074;2024-02-26T06:47:15;9.47;;;6.87;;
10894;SDS011;5500;49.886;8.074;2024-02-26T06:49:43;10.23;;;4.43;;
10894;SDS011;5500;49.886;8.074;2024-02-26T06:52:11;4.63;;;4.13;;
10894;SDS011;5500;49.886;8.074;2024-02-26T06:54:38;5.40;;;3.40;;
10894;SDS011;5500;49.886;8.074;2024-02-26T06:57:06;6.60;;;3.93;;
10894;SDS011;5500;49.886;8.074;2024-02-26T06:59:35;4.93;;;3.70;;
10894;SDS011;5500;49.886;8.074;2024-02-26T07:02:03;5.23;;;4.10;;
10894;SDS011;5500;49.886;8.074;2024-02-26T07:04:31;6.00;;;4.10;;
10894;SDS011;5500;49.886;8.074;2024-02-26T07:07:00;6.03;;;3.60;;
10894;SDS011;5500;49.886;8.074;2024-02-26T07:09:28;6.30;;;4.17;;
10894;SDS011;5500;49.886;8.074;2024-02-26T07:11:56;6.90;;;3.83;;
10894;SDS011;5500;49.886;8.074;2024-02-26T07:14:26;5.80;;;3.87;;
10894;SDS011;5500;49.886;8.074;2024-02-26T07:16:55;3.63;;;3.33;;
10894;SDS011;5500;49.886;8.074;2024-02-26T07:19:24;3.77;;;3.40;;
10894;SDS011;5500;49.886;8.074;2024-02-26T07:21:52;6.23;;;4.03;;
10894;SDS011;5500;49.886;8.074;2024-02-26T07:24:20;6.47;;;4.17;;
10894;SDS011;5500;49.886;8.074;2024-02-26T07:26:48;4.80;;;4.30;;
10894;SDS011;5500;49.886;8.074;2024-02-26T07:29:16;6.50;;;4.10;;
10894;SDS011;5500;49.886;8.074;2024-02-26T07:31:43;5.10;;;4.60;;
10894;SDS011;5500;49.886;8.074;2024-02-26T07:34:12;7.63;;;4.10;;
10894;SDS011;5500;49.886;8.074;2024-02-26T07:36:40;5.23;;;4.37;;
10894;SDS011;5500;49.886;8.074;2024-02-26T07:39:08;5.83;;;5.23;;
10894;SDS011;5500;49.886;8.074;2024-02-26T07:41:36;8.17;;;4.50;;
10894;SDS011;5500;49.886;8.074;2024-02-26T07:44:05;4.60;;;4.20;;
10894;SDS011;5500;49.886;8.074;2024-02-26T07:46:32;6.27;;;4.97;;
10894;SDS011;5500;49.886;8.074;2024-02-26T07:49:00;12.53;;;8.40;;
10894;SDS011;5500;49.886;8.074;2024-02-26T07:51:29;11.40;;;6.77;;
10894;SDS011;5500;49.886;8.074;2024-02-26T07:53:57;6.70;;;5.20;;
10894;SDS011;5500;49.886;8.074;2024-02-26T07:56:25;5.07;;;4.57;;
10894;SDS011;5500;49.886;8.074;2024-02-26T07:58:53;5.70;;;4.40;;
10894;SDS011;5500;49.886;8.074;2024-02-26T08:01:21;5.53;;;4.90;;
10894;SDS011;5500;49.886;8.074;2024-02-26T08:03:52;6.37;;;4.63;;
10894;SDS011;5500;49.886;8.074;2024-02-26T08:06:20;4.70;;;4.30;;
10894;SDS011;5500;49.886;8.074;2024-02-26T08:08:50;6.33;;;5.17;;
10894;SDS011;5500;49.886;8.074;2024-02-26T08:11:18;5.07;;;4.57;;
10894;SDS011;5500;49.886;8.074;2024-02-26T08:13:46;7.07;;;4.70;;
10894;SDS011;5500;49.886;8.074;2024-02-26T08:16:13;6.30;;;5.10;;
10894;SDS011;5500;49.886;8.074;2024-02-26T08:18:41;9.50;;;5.63;;
10894;SDS011;5500;49.886;8.074;2024-02-26T08:21:09;6.63;;;5.47;;
10894;SDS011;5500;49.886;8.074;2024-02-26T08:23:37;6.40;;;5.27;;
10894;SDS011;5500;49.886;8.074;2024-02-26T08:26:06;6.27;;;5.30;;
10894;SDS011;5500;49.886;8.074;2024-02-26T08:28:36;7.20;;;4.53;;
10894;SDS011;5500;49.886;8.074;2024-02-26T08:31:04;10.13;;;5.23;;
10894;SDS011;5500;49.886;8.074;2024-02-26T08:33:32;7.13;;;4.57;;
10894;SDS011;5500;49.886;8.074;2024-02-26T08:36:03;7.57;;;5.47;;
10894;SDS011;5500;49.886;8.074;2024-02-26T08:38:32;6.43;;;5.83;;
10894;SDS011;5500;49.886;8.074;2024-02-26T08:41:01;6.87;;;6.07;;
10894;SDS011;5500;49.886;8.074;2024-02-26T08:43:30;8.43;;;6.10;;
10894;SDS011;5500;49.886;8.074;2024-02-26T08:45:58;7.73;;;5.70;;
10894;SDS011;5500;49.886;8.074;2024-02-26T08:48:26;9.03;;;6.33;;
10894;SDS011;5500;49.886;8.074;2024-02-26T08:50:54;9.17;;;6.77;;
10894;SDS011;5500;49.886;8.074;2024-02-26T08:53:22;9.23;;;6.93;;
10894;SDS011;5500;49.886;8.074;2024-02-26T08:56:00;10.10;;;7.33;;
10894;SDS011;5500;49.886;8.074;2024-02-26T08:58:30;7.63;;;6.83;;
10894;SDS011;5500;49.886;8.074;2024-02-26T09:00:58;8.40;;;7.10;;
10894;SDS011;5500;49.886;8.074;2024-02-26T09:03:28;11.73;;;9.03;;
10894;SDS011;5500;49.886;8.074;2024-02-26T09:05:56;9.00;;;7.80;;
10894;SDS011;5500;49.886;8.074;2024-02-26T09:08:24;10.93;;;7.43;;
10894;SDS011;5500;49.886;8.074;2024-02-26T09:10:52;10.97;;;7.50;;
10894;SDS011;5500;49.886;8.074;2024-02-26T09:13:19;9.70;;;6.60;;
10894;SDS011;5500;49.886;8.074;2024-02-26T09:15:48;9.93;;;6.60;;
10894;SDS011;5500;49.886;8.074;2024-02-26T09:18:16;9.87;;;7.20;;
10894;SDS011;5500;49.886;8.074;2024-02-26T09:20:44;11.73;;;6.83;;
10894;SDS011;5500;49.886;8.074;2024-02-26T09:23:12;7.80;;;6.47;;
10894;SDS011;5500;49.886;8.074;2024-02-26T09:25:39;10.57;;;6.97;;
10894;SDS011;5500;49.886;8.074;2024-02-26T09:28:07;8.40;;;6.70;;
10894;SDS011;5500;49.886;8.074;2024-02-26T09:30:35;10.00;;;6.80;;
10894;SDS011;5500;49.886;8.074;2024-02-26T09:33:04;8.07;;;6.33;;
10894;SDS011;5500;49.886;8.074;2024-02-26T09:35:32;10.33;;;7.03;;
10894;SDS011;5500;49.886;8.074;2024-02-26T09:38:00;9.87;;;7.10;;
10894;SDS011;5500;49.886;8.074;2024-02-26T09:40:28;8.70;;;7.10;;
10894;SDS011;5500;49.886;8.074;2024-02-26T09:42:56;8.33;;;6.63;;
10894;SDS011;5500;49.886;8.074;2024-02-26T09:45:27;9.57;;;6.37;;
10894;SDS011;5500;49.886;8.074;2024-02-26T09:47:56;8.23;;;6.27;;
10894;SDS011;5500;49.886;8.074;2024-02-26T09:50:25;7.40;;;6.40;;
10894;SDS011;5500;49.886;8.074;2024-02-26T09:52:53;8.30;;;6.37;;
10894;SDS011;5500;49.886;8.074;2024-02-26T09:55:21;7.37;;;6.23;;
10894;SDS011;5500;49.886;8.074;2024-02-26T09:57:51;8.70;;;7.17;;
10894;SDS011;5500;49.886;8.074;2024-02-26T10:00:20;8.77;;;6.70;;
10894;SDS011;5500;49.886;8.074;2024-02-26T10:02:49;8.57;;;7.40;;
10894;SDS011;5500;49.886;8.074;2024-02-26T10:05:18;7.43;;;6.63;;
10894;SDS011;5500;49.886;8.074;2024-02-26T10:07:48;8.00;;;6.57;;
10894;SDS011;5500;49.886;8.074;2024-02-26T10:10:16;8.47;;;6.80;;
10894;SDS011;5500;49.886;8.074;2024-02-26T10:12:44;7.97;;;7.17;;
10894;SDS011;5500;49.886;8.074;2024-02-26T10:15:12;9.03;;;7.17;;
10894;SDS011;5500;49.886;8.074;2024-02-26T10:17:40;8.53;;;7.00;;
10894;SDS011;5500;49.886;8.074;2024-02-26T10:20:12;10.17;;;6.93;;
10894;SDS011;5500;49.886;8.074;2024-02-26T10:22:42;11.53;;;6.93;;
10894;SDS011;5500;49.886;8.074;2024-02-26T10:25:11;12.53;;;9.87;;
10894;SDS011;5500;49.886;8.074;2024-02-26T10:27:40;13.07;;;8.33;;
10894;SDS011;5500;49.886;8.074;2024-02-26T10:30:15;10.90;;;8.50;;
10894;SDS011;5500;49.886;8.074;2024-02-26T10:32:44;11.47;;;8.73;;
10894;SDS011;5500;49.886;8.074;2024-02-26T10:35:13;9.33;;;7.73;;
10894;SDS011;5500;49.886;8.074;2024-02-26T10:37:41;11.33;;;8.37;;
10894;SDS011;5500;49.886;8.074;2024-02-26T10:40:11;12.30;;;8.37;;
10894;SDS011;5500;49.886;8.074;2024-02-26T10:42:39;11.70;;;8.53;;
10894;SDS011;5500;49.886;8.074;2024-02-26T10:45:08;9.00;;;8.10;;
10894;SDS011;5500;49.886;8.074;2024-02-26T10:47:36;10.03;;;8.70;;
10894;SDS011;5500;49.886;8.074;2024-02-26T10:50:05;10.73;;;8.93;;
10894;SDS011;5500;49.886;8.074;2024-02-26T10:52:33;11.80;;;9.47;;
10894;SDS011;5500;49.886;8.074;2024-02-26T10:55:02;9.83;;;8.70;;
10894;SDS011;5500;49.886;8.074;2024-02-26T10:57:33;9.67;;;8.60;;
10894;SDS011;5500;49.886;8.074;2024-02-26T11:00:05;14.37;;;9.23;;
10894;SDS011;5500;49.886;8.074;2024-02-26T11:02:37;11.40;;;8.23;;
10894;SDS011;5500;49.886;8.074;2024-02-26T11:05:05;11.97;;;9.27;;
10894;SDS011;5500;49.886;8.074;2024-02-26T11:07:34;8.83;;;7.93;;
10894;SDS011;5500;49.886;8.074;2024-02-26T11:10:02;9.03;;;8.10;;
10894;SDS011;5500;49.886;8.074;2024-02-26T11:12:33;12.00;;;8.33;;
10894;SDS011;5500;49.886;8.074;2024-02-26T11:15:04;10.13;;;8.33;;
10894;SDS011;5500;49.886;8.074;2024-02-26T11:17:32;10.37;;;7.60;;
10894;SDS011;5500;49.886;8.074;2024-02-26T11:20:01;9.93;;;8.23;;
10894;SDS011;5500;49.886;8.074;2024-02-26T11:22:29;14.07;;;7.77;;
10894;SDS011;5500;49.886;8.074;2024-02-26T11:24:57;8.33;;;7.17;;
10894;SDS011;5500;49.886;8.074;2024-02-26T11:27:28;11.10;;;7.80;;
10894;SDS011;5500;49.886;8.074;2024-02-26T11:30:00;9.70;;;7.37;;
10894;SDS011;5500;49.886;8.074;2024-02-26T11:32:31;11.17;;;7.37;;
10894;SDS011;5500;49.886;8.074;2024-02-26T11:35:01;8.17;;;6.77;;
10894;SDS011;5500;49.886;8.074;2024-02-26T11:37:29;8.07;;;6.23;;
10894;SDS011;5500;49.886;8.074;2024-02-26T11:39:59;10.60;;;7.37;;
10894;SDS011;5500;49.886;8.074;2024-02-26T11:42:27;8.13;;;6.83;;
10894;SDS011;5500;49.886;8.074;2024-02-26T11:44:56;7.80;;;7.00;;
10894;SDS011;5500;49.886;8.074;2024-02-26T11:47:28;10.67;;;7.40;;
10894;SDS011;5500;49.886;8.074;2024-02-26T11:49:56;8.60;;;7.43;;
10894;SDS011;5500;49.886;8.074;2024-02-26T11:52:24;13.13;;;7.23;;
10894;SDS011;5500;49.886;8.074;2024-02-26T11:54:52;10.53;;;7.50;;
10894;SDS011;5500;49.886;8.074;2024-02-26T11:57:24;11.37;;;7.57;;
10894;SDS011;5500;49.886;8.074;2024-02-26T11:59:54;9.73;;;7.57;;
10894;SDS011;5500;49.886;8.074;2024-02-26T12:02:39;9.53;;;7.90;;
10894;SDS011;5500;49.886;8.074;2024-02-26T12:05:09;11.77;;;7.20;;
10894;SDS011;5500;49.886;8.074;2024-02-26T12:07:40;8.37;;;7.27;;
10894;SDS011;5500;49.886;8.074;2024-02-26T12:10:19;10.43;;;7.63;;
10894;SDS011;5500;49.886;8.074;2024-02-26T12:12:55;8.67;;;6.80;;
10894;SDS011;5500;49.886;8.074;2024-02-26T12:15:30;9.93;;;7.63;;
10894;SDS011;5500;49.886;8.074;2024-02-26T12:18:01;11.47;;;7.63;;
10894;SDS011;5500;49.886;8.074;2024-02-26T12:20:30;13.70;;;9.17;;
10894;SDS011;5500;49.886;8.074;2024-02-26T12:22:59;8.90;;;7.47;;
10894;SDS011;5500;49.886;8.074;2024-02-26T12:25:27;12.20;;;8.03;;
10894;SDS011;5500;49.886;8.074;2024-02-26T12:27:56;9.53;;;7.60;;
10894;SDS011;5500;49.886;8.074;2024-02-26T12:30:24;8.73;;;7.13;;
10894;SDS011;5500;49.886;8.074;2024-02-26T12:32:53;8.53;;;7.60;;
10894;SDS011;5500;49.886;8.074;2024-02-26T12:35:25;8.47;;;7.07;;
10894;SDS011;5500;49.886;8.074;2024-02-26T12:37:52;9.67;;;7.53;;
10894;SDS011;5500;49.886;8.074;2024-02-26T12:40:21;8.40;;;7.23;;
10894;SDS011;5500;49.886;8.074;2024-02-26T12:42:49;8.27;;;7.00;;
10894;SDS011;5500;49.886;8.074;2024-02-26T12:45:17;7.97;;;7.10;;
10894;SDS011;5500;49.886;8.074;2024-02-26T12:47:45;9.30;;;6.50;;
10894;SDS011;5500;49.886;8.074;2024-02-26T12:50:14;8.47;;;7.40;;
10894;SDS011;5500;49.886;8.074;2024-02-26T12:52:44;11.70;;;6.47;;
10894;SDS011;5500;49.886;8.074;2024-02-26T12:55:14;9.43;;;6.90;;
10894;SDS011;5500;49.886;8.074;2024-02-26T12:57:42;7.87;;;6.80;;
10894;SDS011;5500;49.886;8.074;2024-02-26T13:00:11;7.60;;;6.80;;
10894;SDS011;5500;49.886;8.074;2024-02-26T13:02:41;6.63;;;6.03;;
10894;SDS011;5500;49.886;8.074;2024-02-26T13:05:11;6.97;;;6.27;;
10894;SDS011;5500;49.886;8.074;2024-02-26T13:07:41;8.87;;;6.67;;
10894;SDS011;5500;49.886;8.074;2024-02-26T13:10:12;9.17;;;7.33;;
10894;SDS011;5500;49.886;8.074;2024-02-26T13:12:43;10.73;;;6.40;;
10894;SDS011;5500;49.886;8.074;2024-02-26T13:15:14;7.33;;;6.50;;
10894;SDS011;5500;49.886;8.074;2024-02-26T13:17:43;6.13;;;5.30;;
10894;SDS011;5500;49.886;8.074;2024-02-26T13:20:11;6.63;;;5.60;;
10894;SDS011;5500;49.886;8.074;2024-02-26T13:22:39;6.20;;;5.60;;
10894;SDS011;5500;49.886;8.074;2024-02-26T13:25:07;6.20;;;5.23;;
10894;SDS011;5500;49.886;8.074;2024-02-26T13:27:37;6.93;;;5.70;;
10894;SDS011;5500;49.886;8.074;2024-02-26T13:30:05;8.07;;;5.70;;
10894;SDS011;5500;49.886;8.074;2024-02-26T13:32:37;6.30;;;5.13;;
10894;SDS011;5500;49.886;8.074;2024-02-26T13:35:07;5.73;;;5.00;;
10894;SDS011;5500;49.886;8.074;2024-02-26T13:37:35;5.77;;;5.10;;
10894;SDS011;5500;49.886;8.074;2024-02-26T13:40:04;7.13;;;6.40;;
10894;SDS011;5500;49.886;8.074;2024-02-26T13:42:32;9.37;;;5.93;;
10894;SDS011;5500;49.886;8.074;2024-02-26T13:45:02;7.23;;;5.63;;
10894;SDS011;5500;49.886;8.074;2024-02-26T13:47:32;5.93;;;5.43;;
10894;SDS011;5500;49.886;8.074;2024-02-26T13:49:59;8.90;;;6.00;;
10894;SDS011;5500;49.886;8.074;2024-02-26T13:52:28;7.47;;;5.90;;
10894;SDS011;5500;49.886;8.074;2024-02-26T13:54:58;6.00;;;5.00;;
10894;SDS011;5500;49.886;8.074;2024-02-26T13:57:27;6.87;;;5.83;;
10894;SDS011;5500;49.886;8.074;2024-02-26T13:59:55;7.87;;;6.33;;
10894;SDS011;5500;49.886;8.074;2024-02-26T14:02:24;12.53;;;5.77;;
10894;SDS011;5500;49.886;8.074;2024-02-26T14:04:52;8.73;;;6.10;;
10894;SDS011;5500;49.886;8.074;2024-02-26T14:07:19;7.87;;;5.93;;
10894;SDS011;5500;49.886;8.074;2024-02-26T14:09:47;7.57;;;5.47;;
10894;SDS011;5500;49.886;8.074;2024-02-26T14:12:16;5.93;;;5.33;;
10894;SDS011;5500;49.886;8.074;2024-02-26T14:14:48;7.33;;;5.10;;
10894;SDS011;5500;49.886;8.074;2024-02-26T14:17:16;5.60;;;5.03;;
10894;SDS011;5500;49.886;8.074;2024-02-26T14:19:45;7.20;;;5.20;;
10894;SDS011;5500;49.886;8.074;2024-02-26T14:22:14;6.23;;;5.10;;
10894;SDS011;5500;49.886;8.074;2024-02-26T14:24:43;6.83;;;5.40;;
10894;SDS011;5500;49.886;8.074;2024-02-26T14:27:12;5.83;;;5.23;;
10894;SDS011;5500;49.886;8.074;2024-02-26T14:29:42;9.17;;;5.50;;
10894;SDS011;5500;49.886;8.074;2024-02-26T14:32:11;7.00;;;5.50;;
10894;SDS011;5500;49.886;8.074;2024-02-26T14:34:39;5.73;;;5.10;;
10894;SDS011;5500;49.886;8.074;2024-02-26T14:37:09;6.73;;;5.13;;
10894;SDS011;5500;49.886;8.074;2024-02-26T14:39:37;7.40;;;6.00;;
10894;SDS011;5500;49.886;8.074;2024-02-26T14:42:06;6.23;;;5.63;;
10894;SDS011;5500;49.886;8.074;2024-02-26T14:44:34;6.67;;;5.67;;
10894;SDS011;5500;49.886;8.074;2024-02-26T14:47:03;9.47;;;5.80;;
10894;SDS011;5500;49.886;8.074;2024-02-26T14:49:31;7.63;;;5.93;;
10894;SDS011;5500;49.886;8.074;2024-02-26T14:52:00;8.07;;;5.60;;
10894;SDS011;5500;49.886;8.074;2024-02-26T14:54:31;6.53;;;5.47;;
10894;SDS011;5500;49.886;8.074;2024-02-26T14:57:04;7.33;;;5.57;;
10894;SDS011;5500;49.886;8.074;2024-02-26T14:59:33;7.77;;;6.10;;
10894;SDS011;5500;49.886;8.074;2024-02-26T15:02:03;6.47;;;5.60;;
10894;SDS011;5500;49.886;8.074;2024-02-26T15:04:31;7.63;;;5.87;;
10894;SDS011;5500;49.886;8.074;2024-02-26T15:06:59;8.00;;;5.33;;
10894;SDS011;5500;49.886;8.074;2024-02-26T15:09:27;6.73;;;5.53;;